createdAt,value
2017-03-31T03:00:25.853Z,20.9
2017-03-31T03:00:51.411Z,20.93
2017-03-31T03:01:16.971Z,20.91
2017-03-31T03:01:42.538Z,20.86
2017-03-31T03:02:08.085Z,20.84
2017-03-31T03:02:33.651Z,20.87
2017-03-31T03:02:59.208Z,20.9
2017-03-31T03:03:24.828Z,20.93
2017-03-31T03:03:50.407Z,20.86
2017-03-31T03:04:15.982Z,20.9
2017-03-31T03:04:41.542Z,20.9
2017-03-31T03:05:07.135Z,20.87
2017-03-31T03:05:32.700Z,20.84
2017-03-31T03:05:58.257Z,20.86
2017-03-31T03:06:23.817Z,20.89
2017-03-31T03:06:49.365Z,20.9
2017-03-31T03:07:15.002Z,20.84
2017-03-31T03:07:40.554Z,20.84
2017-03-31T03:08:06.103Z,20.87
2017-03-31T03:08:31.659Z,20.91
2017-03-31T03:08:57.231Z,20.87
2017-03-31T03:09:22.798Z,20.91
2017-03-31T03:09:48.365Z,20.91
2017-03-31T03:10:13.930Z,20.87
2017-03-31T03:10:39.492Z,20.89
2017-03-31T03:11:05.173Z,20.84
2017-03-31T03:11:30.765Z,20.89
2017-03-31T03:11:56.309Z,20.89
2017-03-31T03:12:21.851Z,20.93
2017-03-31T03:12:47.519Z,20.89
2017-03-31T03:13:13.067Z,20.86
2017-03-31T03:13:38.617Z,20.91
2017-03-31T03:14:04.275Z,20.87
2017-03-31T03:14:29.906Z,20.87
2017-03-31T03:14:55.483Z,20.89
2017-03-31T03:15:21.055Z,20.86
2017-03-31T03:16:19.582Z,20.87
2017-03-31T03:16:45.163Z,20.9
2017-03-31T03:17:10.714Z,20.86
2017-03-31T03:17:36.269Z,20.91
2017-03-31T03:18:01.816Z,20.93
2017-03-31T03:18:27.373Z,20.89
2017-03-31T03:18:52.990Z,20.89
2017-03-31T03:19:18.553Z,20.89
2017-03-31T03:19:44.087Z,20.9
2017-03-31T03:20:09.839Z,20.81
2017-03-31T03:20:35.622Z,20.89
2017-03-31T03:21:01.169Z,20.84
2017-03-31T03:21:26.742Z,20.89
2017-03-31T03:21:52.247Z,20.91
2017-03-31T03:22:17.777Z,20.91
2017-03-31T03:22:43.335Z,20.9
2017-03-31T03:23:08.921Z,20.9
2017-03-31T03:23:34.467Z,20.86
2017-03-31T03:24:00.021Z,20.86
2017-03-31T03:24:25.591Z,20.89
2017-03-31T03:24:51.157Z,20.9
2017-03-31T03:25:16.743Z,20.86
2017-03-31T03:25:42.290Z,20.9
2017-03-31T03:26:07.843Z,20.87
2017-03-31T03:26:33.390Z,20.87
2017-03-31T03:26:58.957Z,20.87
2017-03-31T03:27:24.559Z,20.87
2017-03-31T03:27:50.107Z,20.93
2017-03-31T03:28:15.661Z,20.86
2017-03-31T03:28:41.240Z,20.86
2017-03-31T03:29:06.807Z,20.86
2017-03-31T03:29:32.388Z,20.89
2017-03-31T03:29:57.942Z,20.81
2017-03-31T03:30:23.499Z,20.9
2017-03-31T03:30:49.054Z,20.89
2017-03-31T03:31:14.613Z,20.84
2017-03-31T03:31:40.185Z,20.89
2017-03-31T03:32:05.789Z,20.9
2017-03-31T03:32:31.329Z,20.89
2017-03-31T03:32:56.923Z,20.93
2017-03-31T03:33:22.556Z,20.91
2017-03-31T03:33:48.103Z,20.84
2017-03-31T03:34:13.644Z,20.87
2017-03-31T03:34:39.293Z,20.9
2017-03-31T03:35:04.849Z,20.9
2017-03-31T03:35:30.392Z,20.91
2017-03-31T03:35:55.943Z,20.89
2017-03-31T03:36:21.485Z,20.89
2017-03-31T03:36:47.016Z,20.9
2017-03-31T03:37:12.629Z,20.9
2017-03-31T03:37:38.183Z,20.87
2017-03-31T03:38:03.732Z,20.87
2017-03-31T03:38:29.290Z,20.89
2017-03-31T03:38:54.887Z,20.84
2017-03-31T03:39:20.473Z,20.87
2017-03-31T03:39:46.034Z,20.89
2017-03-31T03:40:11.579Z,20.87
2017-03-31T03:40:37.143Z,20.87
2017-03-31T03:41:02.714Z,20.86
2017-03-31T03:41:28.306Z,20.89
2017-03-31T03:41:53.937Z,20.89
2017-03-31T03:42:19.496Z,20.89
2017-03-31T03:42:45.043Z,20.81
2017-03-31T03:43:10.586Z,20.86
2017-03-31T03:43:36.119Z,20.87
2017-03-31T03:44:01.680Z,20.86
2017-03-31T03:44:27.234Z,20.87
2017-03-31T03:44:52.784Z,20.87
2017-03-31T03:45:18.332Z,20.87
2017-03-31T03:45:43.892Z,20.89
2017-03-31T03:46:09.457Z,20.84
2017-03-31T03:46:35.033Z,20.86
2017-03-31T03:47:00.592Z,20.89
2017-03-31T03:47:26.163Z,20.9
2017-03-31T03:47:51.714Z,20.89
2017-03-31T03:48:17.272Z,20.89
2017-03-31T03:48:42.824Z,20.87
2017-03-31T03:49:08.388Z,20.87
2017-03-31T03:49:33.940Z,20.91
2017-03-31T03:49:59.592Z,20.9
2017-03-31T03:50:25.142Z,20.89
2017-03-31T03:50:50.698Z,20.89
2017-03-31T03:51:16.380Z,20.89
2017-03-31T03:51:41.937Z,20.91
2017-03-31T03:52:07.473Z,20.86
2017-03-31T03:52:33.016Z,20.9
2017-03-31T03:52:58.590Z,20.9
2017-03-31T03:53:24.097Z,20.89
2017-03-31T03:53:49.702Z,20.87
2017-03-31T03:54:15.255Z,20.93
2017-03-31T03:54:40.942Z,20.91
2017-03-31T03:55:06.497Z,20.91
2017-03-31T03:55:32.047Z,20.87
2017-03-31T03:55:57.609Z,20.89
2017-03-31T03:56:23.219Z,20.89
2017-03-31T03:56:48.838Z,20.86
2017-03-31T03:57:14.391Z,20.86
2017-03-31T03:57:39.929Z,20.87
2017-03-31T03:58:05.491Z,20.93
2017-03-31T03:58:31.029Z,20.89
2017-03-31T03:58:56.573Z,20.89
2017-03-31T03:59:22.113Z,20.89
2017-03-31T03:59:47.650Z,20.87
2017-03-31T04:00:13.188Z,20.87
2017-03-31T04:00:38.741Z,20.9
2017-03-31T04:01:04.310Z,20.89
2017-03-31T04:01:29.866Z,20.86
2017-03-31T04:01:55.539Z,20.89
2017-03-31T04:02:21.093Z,20.9
2017-03-31T04:02:46.639Z,20.89
2017-03-31T04:03:12.211Z,20.83
2017-03-31T04:03:37.758Z,20.87
2017-03-31T04:04:03.299Z,20.86
2017-03-31T04:04:28.843Z,20.83
2017-03-31T04:04:54.395Z,20.77
2017-03-31T04:05:19.972Z,20.84
2017-03-31T04:05:45.558Z,20.9
2017-03-31T04:06:11.100Z,20.86
2017-03-31T04:06:36.665Z,20.9
2017-03-31T04:07:02.226Z,20.9
2017-03-31T04:07:27.779Z,20.89
2017-03-31T04:07:53.323Z,20.89
2017-03-31T04:08:18.898Z,20.86
2017-03-31T04:08:44.452Z,20.87
2017-03-31T04:09:09.999Z,20.93
2017-03-31T04:09:35.561Z,20.84
2017-03-31T04:10:01.139Z,20.91
2017-03-31T04:10:26.691Z,20.86
2017-03-31T04:10:52.256Z,20.83
2017-03-31T04:11:17.820Z,20.9
2017-03-31T04:11:43.388Z,20.86
2017-03-31T04:12:08.939Z,20.84
2017-03-31T04:12:34.503Z,20.89
2017-03-31T04:13:00.049Z,20.86
2017-03-31T04:13:25.619Z,20.89
2017-03-31T04:13:51.188Z,20.96
2017-03-31T04:14:16.810Z,20.87
2017-03-31T04:14:42.356Z,20.81
2017-03-31T04:15:07.925Z,20.87
2017-03-31T04:15:33.499Z,20.91
2017-03-31T04:15:59.061Z,20.87
2017-03-31T04:16:24.632Z,20.83
2017-03-31T04:16:50.278Z,20.91
2017-03-31T04:17:15.853Z,20.86
2017-03-31T04:17:41.408Z,20.89
2017-03-31T04:18:07.039Z,20.89
2017-03-31T04:18:32.593Z,20.87
2017-03-31T04:18:58.164Z,20.91
2017-03-31T04:19:23.741Z,20.8
2017-03-31T04:19:49.303Z,20.84
2017-03-31T04:20:14.869Z,20.89
2017-03-31T04:20:40.421Z,20.9
2017-03-31T04:21:05.984Z,20.81
2017-03-31T04:21:31.563Z,20.89
2017-03-31T04:21:57.108Z,20.86
2017-03-31T04:22:22.664Z,20.83
2017-03-31T04:22:48.227Z,20.87
2017-03-31T04:23:13.788Z,20.83
2017-03-31T04:23:39.401Z,20.9
2017-03-31T04:24:04.947Z,20.86
2017-03-31T04:24:30.500Z,20.86
2017-03-31T04:24:56.068Z,20.84
2017-03-31T04:25:21.623Z,20.9
2017-03-31T04:25:47.176Z,20.87
2017-03-31T04:26:12.751Z,20.93
2017-03-31T04:26:38.316Z,20.9
2017-03-31T04:27:03.883Z,20.87
2017-03-31T04:27:29.463Z,20.84
2017-03-31T04:27:55.028Z,20.83
2017-03-31T04:28:20.580Z,20.89
2017-03-31T04:28:46.159Z,20.91
2017-03-31T04:29:11.737Z,20.9
2017-03-31T04:29:37.279Z,20.9
2017-03-31T04:30:02.839Z,20.89
2017-03-31T04:30:28.379Z,20.87
2017-03-31T04:30:53.928Z,20.8
2017-03-31T04:31:19.487Z,20.86
2017-03-31T04:31:45.060Z,20.86
2017-03-31T04:32:10.619Z,20.9
2017-03-31T04:32:36.187Z,20.89
2017-03-31T04:33:01.754Z,20.87
2017-03-31T04:33:27.441Z,20.9
2017-03-31T04:33:53.001Z,20.87
2017-03-31T04:34:18.620Z,20.89
2017-03-31T04:34:44.190Z,20.87
2017-03-31T04:35:09.759Z,20.86
2017-03-31T04:35:35.320Z,20.9
2017-03-31T04:36:00.872Z,20.87
2017-03-31T04:36:26.429Z,20.83
2017-03-31T04:36:51.976Z,20.83
2017-03-31T04:37:17.540Z,20.87
2017-03-31T04:37:43.084Z,20.87
2017-03-31T04:38:08.642Z,20.9
2017-03-31T04:38:34.225Z,20.87
2017-03-31T04:38:59.798Z,20.86
2017-03-31T04:39:25.347Z,20.89
2017-03-31T04:39:50.893Z,20.9
2017-03-31T04:40:16.471Z,20.93
2017-03-31T04:40:42.030Z,20.77
2017-03-31T04:41:07.597Z,20.87
2017-03-31T04:41:33.155Z,20.9
2017-03-31T04:41:58.717Z,20.84
2017-03-31T04:42:24.311Z,20.89
2017-03-31T04:42:49.883Z,20.91
2017-03-31T04:43:15.456Z,20.91
2017-03-31T04:43:41.088Z,20.9
2017-03-31T04:44:06.635Z,20.89
2017-03-31T04:44:32.194Z,20.89
2017-03-31T04:44:57.759Z,20.9
2017-03-31T04:45:23.328Z,20.93
2017-03-31T04:45:48.907Z,20.84
2017-03-31T04:46:14.487Z,20.87
2017-03-31T04:46:40.068Z,20.87
2017-03-31T04:47:05.737Z,20.89
2017-03-31T04:47:31.315Z,20.87
2017-03-31T04:47:56.967Z,20.96
2017-03-31T04:48:22.569Z,20.9
2017-03-31T04:48:48.119Z,20.86
2017-03-31T04:49:13.687Z,20.9
2017-03-31T04:49:39.326Z,20.87
2017-03-31T04:50:04.904Z,20.89
2017-03-31T04:50:30.458Z,20.87
2017-03-31T04:50:56.030Z,20.87
2017-03-31T04:51:21.591Z,20.86
2017-03-31T04:51:47.144Z,20.87
2017-03-31T04:52:12.771Z,20.84
2017-03-31T04:52:38.346Z,20.89
2017-03-31T04:53:03.920Z,20.81
2017-03-31T04:53:29.503Z,20.87
2017-03-31T04:53:55.094Z,20.87
2017-03-31T04:54:20.649Z,20.86
2017-03-31T04:54:46.251Z,20.86
2017-03-31T04:55:11.902Z,20.89
2017-03-31T04:55:37.485Z,20.86
2017-03-31T04:56:03.061Z,20.86
2017-03-31T04:56:28.641Z,20.93
2017-03-31T04:56:54.199Z,20.87
2017-03-31T04:57:19.758Z,20.89
2017-03-31T04:57:45.311Z,20.89
2017-03-31T04:58:10.878Z,20.89
2017-03-31T04:58:36.469Z,20.84
2017-03-31T04:59:02.036Z,20.84
2017-03-31T04:59:27.625Z,20.87
2017-03-31T04:59:53.214Z,20.9
2017-03-31T05:00:18.781Z,20.87
2017-03-31T05:00:44.381Z,20.89
2017-03-31T05:01:09.971Z,20.89
2017-03-31T05:01:35.531Z,20.87
2017-03-31T05:02:01.101Z,20.89
2017-03-31T05:02:26.661Z,20.87
2017-03-31T05:02:52.309Z,20.86
2017-03-31T05:03:17.880Z,20.87
2017-03-31T05:03:43.479Z,20.83
2017-03-31T05:04:09.123Z,20.84
2017-03-31T05:04:34.699Z,20.89
2017-03-31T05:05:00.309Z,20.9
2017-03-31T05:05:25.895Z,20.95
2017-03-31T05:05:51.463Z,20.9
2017-03-31T05:06:17.052Z,20.83
2017-03-31T05:06:42.648Z,20.84
2017-03-31T05:07:08.229Z,20.93
2017-03-31T05:07:33.813Z,20.89
2017-03-31T05:07:59.377Z,20.86
2017-03-31T05:08:24.962Z,20.87
2017-03-31T05:08:50.532Z,20.87
2017-03-31T05:09:16.104Z,20.87
2017-03-31T05:09:41.678Z,20.87
2017-03-31T05:10:07.290Z,20.93
2017-03-31T05:10:32.898Z,20.74
2017-03-31T05:10:58.447Z,20.84
2017-03-31T05:11:23.994Z,20.79
2017-03-31T05:11:49.704Z,20.84
2017-03-31T05:12:15.271Z,20.84
2017-03-31T05:12:40.828Z,20.87
2017-03-31T05:13:06.485Z,20.89
2017-03-31T05:13:32.042Z,20.89
2017-03-31T05:13:57.597Z,20.89
2017-03-31T05:14:23.279Z,20.86
2017-03-31T05:14:48.894Z,20.84
2017-03-31T05:15:14.461Z,20.9
2017-03-31T05:16:23.111Z,20.9
2017-03-31T05:16:48.721Z,20.91
2017-03-31T05:17:14.257Z,20.81
2017-03-31T05:17:39.830Z,20.77
2017-03-31T05:18:05.393Z,20.9
2017-03-31T05:18:30.961Z,20.84
2017-03-31T05:18:56.535Z,20.89
2017-03-31T05:19:22.088Z,20.81
2017-03-31T05:19:47.659Z,20.86
2017-03-31T05:20:13.211Z,20.89
2017-03-31T05:20:38.788Z,20.93
2017-03-31T05:21:04.351Z,20.86
2017-03-31T05:21:29.978Z,20.79
2017-03-31T05:21:55.649Z,20.87
2017-03-31T05:22:21.220Z,20.89
2017-03-31T05:22:46.777Z,20.81
2017-03-31T05:23:12.330Z,20.86
2017-03-31T05:23:37.910Z,20.83
2017-03-31T05:24:41.521Z,20.8
2017-03-31T05:25:07.091Z,20.8
2017-03-31T05:25:32.657Z,20.8
2017-03-31T05:25:58.224Z,20.83
2017-03-31T05:26:23.834Z,20.86
2017-03-31T05:26:49.416Z,20.8
2017-03-31T05:27:14.983Z,20.87
2017-03-31T05:27:40.555Z,20.86
2017-03-31T05:28:06.119Z,20.86
2017-03-31T05:28:31.711Z,20.81
2017-03-31T05:28:57.274Z,20.89
2017-03-31T05:29:22.831Z,20.86
2017-03-31T05:29:48.395Z,20.87
2017-03-31T05:30:13.957Z,20.77
2017-03-31T05:30:39.532Z,20.8
2017-03-31T05:31:05.090Z,20.93
2017-03-31T05:31:30.660Z,20.77
2017-03-31T05:31:56.356Z,20.87
2017-03-31T05:32:21.937Z,20.84
2017-03-31T05:32:47.498Z,20.8
2017-03-31T05:33:13.088Z,20.83
2017-03-31T05:33:38.706Z,20.77
2017-03-31T05:34:04.258Z,20.8
2017-03-31T05:34:29.858Z,20.8
2017-03-31T05:34:55.446Z,20.87
2017-03-31T05:35:21.035Z,20.83
2017-03-31T05:35:46.610Z,20.84
2017-03-31T05:36:12.166Z,20.84
2017-03-31T05:36:37.729Z,20.84
2017-03-31T05:37:03.286Z,20.83
2017-03-31T05:37:28.871Z,20.83
2017-03-31T05:37:54.425Z,20.81
2017-03-31T05:38:19.983Z,20.84
2017-03-31T05:38:45.542Z,20.8
2017-03-31T05:39:11.148Z,20.84
2017-03-31T05:39:36.711Z,20.84
2017-03-31T05:40:02.262Z,20.84
2017-03-31T05:40:27.830Z,20.83
2017-03-31T05:40:53.407Z,20.77
2017-03-31T05:41:18.956Z,20.76
2017-03-31T05:41:44.530Z,20.89
2017-03-31T05:42:10.080Z,20.83
2017-03-31T05:42:35.650Z,20.86
2017-03-31T05:43:01.210Z,20.84
2017-03-31T05:43:26.797Z,20.83
2017-03-31T05:43:52.369Z,20.83
2017-03-31T05:44:17.917Z,20.84
2017-03-31T05:44:43.461Z,20.83
2017-03-31T05:45:09.006Z,20.87
2017-03-31T05:45:34.702Z,20.87
2017-03-31T05:46:00.252Z,20.86
2017-03-31T05:46:25.790Z,20.86
2017-03-31T05:46:51.453Z,20.81
2017-03-31T05:47:17.025Z,20.86
2017-03-31T05:47:42.590Z,20.77
2017-03-31T05:48:08.129Z,20.86
2017-03-31T05:48:33.708Z,20.83
2017-03-31T05:48:59.255Z,20.84
2017-03-31T05:49:24.837Z,20.84
2017-03-31T05:49:50.395Z,20.81
2017-03-31T05:50:15.969Z,20.79
2017-03-31T05:50:41.535Z,20.83
2017-03-31T05:51:07.089Z,20.8
2017-03-31T05:51:32.685Z,20.81
2017-03-31T05:51:58.209Z,20.77
2017-03-31T05:52:23.760Z,20.84
2017-03-31T05:52:49.321Z,20.9
2017-03-31T05:53:14.911Z,20.83
2017-03-31T05:53:40.487Z,20.8
2017-03-31T05:54:06.057Z,20.79
2017-03-31T05:54:31.632Z,20.81
2017-03-31T05:54:57.246Z,20.77
2017-03-31T05:55:22.802Z,20.87
2017-03-31T05:55:48.351Z,20.81
2017-03-31T05:56:13.910Z,20.86
2017-03-31T05:56:39.500Z,20.87
2017-03-31T05:57:05.081Z,20.83
2017-03-31T05:57:30.642Z,20.79
2017-03-31T05:57:56.204Z,20.84
2017-03-31T05:58:21.780Z,20.8
2017-03-31T05:58:47.370Z,20.83
2017-03-31T05:59:12.930Z,20.83
2017-03-31T05:59:38.500Z,20.8
2017-03-31T06:00:04.067Z,20.81
2017-03-31T06:01:02.456Z,20.79
2017-03-31T06:01:28.006Z,20.8
2017-03-31T06:01:53.582Z,20.84
2017-03-31T06:02:19.134Z,20.83
2017-03-31T06:02:44.697Z,20.79
2017-03-31T06:03:10.341Z,20.81
2017-03-31T06:03:36.107Z,20.72
2017-03-31T06:04:01.772Z,20.79
2017-03-31T06:04:27.452Z,20.77
2017-03-31T06:04:53.010Z,20.77
2017-03-31T06:05:18.666Z,20.72
2017-03-31T06:05:44.305Z,20.74
2017-03-31T06:06:09.851Z,20.77
2017-03-31T06:06:35.512Z,20.8
2017-03-31T06:07:01.172Z,20.76
2017-03-31T06:07:26.622Z,20.76
2017-03-31T06:07:52.183Z,20.79
2017-03-31T06:08:17.855Z,20.81
2017-03-31T06:08:43.447Z,20.74
2017-03-31T06:09:09.035Z,20.81
2017-03-31T06:09:34.719Z,20.77
2017-03-31T06:10:00.326Z,20.81
2017-03-31T06:10:25.898Z,20.72
2017-03-31T06:10:51.559Z,20.77
2017-03-31T06:11:17.120Z,20.81
2017-03-31T06:11:42.733Z,20.76
2017-03-31T06:12:08.409Z,20.74
2017-03-31T06:12:33.967Z,20.72
2017-03-31T06:12:59.578Z,20.69
2017-03-31T06:13:25.153Z,20.72
2017-03-31T06:13:50.739Z,20.77
2017-03-31T06:14:16.380Z,20.72
2017-03-31T06:14:41.943Z,20.69
2017-03-31T06:15:07.558Z,20.66
2017-03-31T06:15:33.129Z,20.74
2017-03-31T06:16:31.610Z,20.72
2017-03-31T06:16:57.169Z,20.72
2017-03-31T06:17:22.791Z,20.79
2017-03-31T06:17:48.352Z,20.74
2017-03-31T06:18:13.901Z,20.69
2017-03-31T06:18:39.518Z,20.71
2017-03-31T06:19:05.086Z,20.76
2017-03-31T06:19:30.647Z,20.76
2017-03-31T06:19:56.212Z,20.66
2017-03-31T06:20:21.837Z,20.68
2017-03-31T06:20:47.459Z,20.74
2017-03-31T06:21:13.068Z,20.76
2017-03-31T06:21:38.836Z,20.77
2017-03-31T06:22:04.471Z,20.74
2017-03-31T06:22:30.055Z,20.74
2017-03-31T06:22:55.704Z,20.77
2017-03-31T06:23:21.260Z,20.71
2017-03-31T06:23:46.903Z,20.74
2017-03-31T06:24:12.570Z,20.72
2017-03-31T06:24:38.129Z,20.71
2017-03-31T06:25:42.173Z,20.68
2017-03-31T06:26:07.774Z,20.66
2017-03-31T06:26:33.351Z,20.65
2017-03-31T06:26:58.958Z,20.68
2017-03-31T06:27:24.599Z,20.76
2017-03-31T06:27:50.170Z,20.69
2017-03-31T06:28:15.831Z,20.72
2017-03-31T06:28:41.433Z,20.69
2017-03-31T06:29:06.977Z,20.68
2017-03-31T06:29:32.548Z,20.68
2017-03-31T06:29:58.119Z,20.71
2017-03-31T06:30:23.792Z,20.66
2017-03-31T06:30:49.347Z,20.66
2017-03-31T06:31:47.730Z,20.74
2017-03-31T06:32:13.292Z,20.66
2017-03-31T06:32:38.849Z,20.69
2017-03-31T06:33:04.400Z,20.79
2017-03-31T06:33:29.935Z,20.69
2017-03-31T06:33:55.488Z,20.66
2017-03-31T06:34:21.050Z,20.74
2017-03-31T06:34:46.621Z,20.69
2017-03-31T06:35:12.192Z,20.68
2017-03-31T06:35:37.850Z,20.68
2017-03-31T06:36:03.379Z,20.76
2017-03-31T06:36:28.925Z,20.74
2017-03-31T06:36:54.458Z,20.71
2017-03-31T06:37:20.004Z,20.65
2017-03-31T06:37:45.598Z,20.66
2017-03-31T06:38:11.149Z,20.66
2017-03-31T06:38:36.804Z,20.68
2017-03-31T06:39:02.360Z,20.65
2017-03-31T06:39:27.920Z,20.65
2017-03-31T06:39:53.485Z,20.66
2017-03-31T06:40:19.049Z,20.69
2017-03-31T06:40:44.696Z,20.65
2017-03-31T06:41:10.284Z,20.68
2017-03-31T06:41:35.818Z,20.69
2017-03-31T06:42:01.374Z,20.69
2017-03-31T06:42:26.915Z,20.72
2017-03-31T06:42:52.491Z,20.66
2017-03-31T06:43:18.041Z,20.74
2017-03-31T06:43:43.606Z,20.69
2017-03-31T06:44:09.162Z,20.66
2017-03-31T06:44:34.712Z,20.69
2017-03-31T06:45:00.573Z,20.71
2017-03-31T06:45:26.112Z,20.69
2017-03-31T06:45:51.760Z,20.65
2017-03-31T06:46:17.312Z,20.64
2017-03-31T06:46:42.853Z,20.66
2017-03-31T06:47:08.422Z,20.68
2017-03-31T06:47:33.951Z,20.69
2017-03-31T06:47:59.565Z,20.64
2017-03-31T06:48:25.140Z,20.66
2017-03-31T06:48:50.699Z,20.72
2017-03-31T06:49:16.243Z,20.68
2017-03-31T06:49:41.894Z,20.69
2017-03-31T06:50:07.458Z,20.68
2017-03-31T06:50:33.018Z,20.68
2017-03-31T06:50:58.595Z,20.65
2017-03-31T06:51:24.155Z,20.65
2017-03-31T06:51:49.698Z,20.66
2017-03-31T06:52:15.274Z,20.69
2017-03-31T06:52:40.885Z,20.66
2017-03-31T06:53:06.545Z,20.68
2017-03-31T06:53:32.203Z,20.69
2017-03-31T06:53:57.786Z,20.68
2017-03-31T06:54:23.374Z,20.71
2017-03-31T06:54:48.949Z,20.65
2017-03-31T06:55:14.490Z,20.72
2017-03-31T06:55:40.152Z,20.68
2017-03-31T06:56:05.711Z,20.65
2017-03-31T06:56:31.268Z,20.76
2017-03-31T06:56:56.808Z,20.68
2017-03-31T06:57:22.358Z,20.68
2017-03-31T06:57:47.905Z,20.66
2017-03-31T06:58:13.459Z,20.69
2017-03-31T06:58:39.091Z,20.69
2017-03-31T06:59:04.647Z,20.66
2017-03-31T06:59:30.202Z,20.68
2017-03-31T06:59:55.923Z,20.66
2017-03-31T07:00:21.481Z,20.69
2017-03-31T07:00:47.034Z,20.62
2017-03-31T07:01:12.615Z,20.68
2017-03-31T07:01:38.156Z,20.68
2017-03-31T07:02:03.713Z,20.68
2017-03-31T07:02:29.279Z,20.68
2017-03-31T07:02:54.859Z,20.68
2017-03-31T07:03:20.440Z,20.68
2017-03-31T07:03:46.009Z,20.68
2017-03-31T07:04:11.589Z,20.62
2017-03-31T07:04:37.141Z,20.66
2017-03-31T07:05:02.698Z,20.64
2017-03-31T07:05:28.259Z,20.65
2017-03-31T07:05:53.805Z,20.66
2017-03-31T07:06:19.367Z,20.68
2017-03-31T07:06:44.917Z,20.65
2017-03-31T07:07:10.576Z,20.68
2017-03-31T07:07:36.185Z,20.71
2017-03-31T07:08:01.735Z,20.65
2017-03-31T07:08:27.324Z,20.66
2017-03-31T07:08:52.874Z,20.66
2017-03-31T07:09:18.482Z,20.66
2017-03-31T07:09:44.072Z,20.72
2017-03-31T07:10:09.641Z,20.66
2017-03-31T07:10:35.186Z,20.62
2017-03-31T07:11:00.861Z,20.71
2017-03-31T07:11:26.430Z,20.69
2017-03-31T07:11:51.975Z,20.68
2017-03-31T07:12:17.706Z,20.66
2017-03-31T07:12:43.283Z,20.65
2017-03-31T07:13:08.849Z,20.69
2017-03-31T07:13:34.405Z,20.71
2017-03-31T07:14:00.033Z,20.69
2017-03-31T07:14:25.589Z,20.72
2017-03-31T07:14:51.136Z,20.65
2017-03-31T07:15:16.799Z,20.71
2017-03-31T07:15:42.366Z,20.65
2017-03-31T07:16:07.943Z,20.69
2017-03-31T07:16:33.522Z,20.65
2017-03-31T07:16:59.080Z,20.76
2017-03-31T07:17:24.640Z,20.72
2017-03-31T07:17:50.198Z,20.65
2017-03-31T07:18:15.758Z,20.76
2017-03-31T07:18:41.446Z,20.74
2017-03-31T07:19:07.004Z,20.66
2017-03-31T07:19:32.541Z,20.68
2017-03-31T07:19:58.102Z,20.66
2017-03-31T07:20:23.658Z,20.71
2017-03-31T07:20:49.224Z,20.71
2017-03-31T07:21:14.770Z,20.71
2017-03-31T07:21:40.350Z,20.71
2017-03-31T07:22:05.903Z,20.71
2017-03-31T07:22:31.591Z,20.66
2017-03-31T07:22:57.173Z,20.71
2017-03-31T07:23:22.734Z,20.66
2017-03-31T07:23:48.299Z,20.69
2017-03-31T07:24:13.859Z,20.66
2017-03-31T07:24:39.420Z,20.66
2017-03-31T07:25:05.001Z,20.72
2017-03-31T07:25:30.555Z,20.68
2017-03-31T07:25:56.111Z,20.71
2017-03-31T07:26:21.685Z,20.68
2017-03-31T07:26:47.240Z,20.76
2017-03-31T07:27:12.803Z,20.68
2017-03-31T07:27:38.390Z,20.65
2017-03-31T07:28:03.952Z,20.65
2017-03-31T07:28:29.530Z,20.71
2017-03-31T07:28:55.098Z,20.68
2017-03-31T07:29:20.656Z,20.68
2017-03-31T07:29:46.206Z,20.66
2017-03-31T07:30:11.794Z,20.62
2017-03-31T07:30:37.359Z,20.72
2017-03-31T07:31:02.902Z,20.69
2017-03-31T07:31:28.462Z,20.66
2017-03-31T07:31:54.019Z,20.69
2017-03-31T07:32:19.592Z,20.68
2017-03-31T07:32:45.266Z,20.69
2017-03-31T07:33:10.826Z,20.65
2017-03-31T07:33:36.528Z,20.69
2017-03-31T07:34:02.091Z,20.64
2017-03-31T07:34:27.668Z,20.69
2017-03-31T07:34:53.234Z,20.69
2017-03-31T07:35:18.927Z,20.69
2017-03-31T07:35:44.505Z,20.69
2017-03-31T07:36:10.085Z,20.66
2017-03-31T07:36:35.761Z,20.74
2017-03-31T07:37:01.332Z,20.71
2017-03-31T07:37:26.900Z,20.71
2017-03-31T07:37:52.488Z,20.59
2017-03-31T07:38:18.052Z,20.71
2017-03-31T07:38:43.609Z,20.66
2017-03-31T07:39:09.171Z,20.64
2017-03-31T07:39:34.759Z,20.72
2017-03-31T07:40:00.331Z,20.69
2017-03-31T07:40:25.935Z,20.62
2017-03-31T07:40:51.630Z,20.66
2017-03-31T07:41:17.257Z,20.64
2017-03-31T07:41:42.814Z,20.64
2017-03-31T07:42:08.368Z,20.64
2017-03-31T07:42:33.932Z,20.62
2017-03-31T07:42:59.491Z,20.62
2017-03-31T07:43:25.081Z,20.71
2017-03-31T07:43:50.643Z,20.62
2017-03-31T07:44:16.232Z,20.59
2017-03-31T07:44:41.799Z,20.68
2017-03-31T07:45:07.347Z,20.65
2017-03-31T07:45:32.908Z,20.61
2017-03-31T07:45:58.468Z,20.65
2017-03-31T07:46:24.039Z,20.59
2017-03-31T07:46:49.616Z,20.65
2017-03-31T07:47:15.162Z,20.61
2017-03-31T07:47:40.727Z,20.62
2017-03-31T07:48:06.292Z,20.59
2017-03-31T07:48:31.861Z,20.66
2017-03-31T07:48:57.429Z,20.64
2017-03-31T07:49:23.047Z,20.58
2017-03-31T07:49:48.622Z,20.61
2017-03-31T07:50:14.181Z,20.59
2017-03-31T07:50:39.760Z,20.61
2017-03-31T07:51:05.332Z,20.61
2017-03-31T07:51:30.891Z,20.65
2017-03-31T07:51:56.458Z,20.61
2017-03-31T07:52:21.999Z,20.61
2017-03-31T07:52:47.637Z,20.59
2017-03-31T07:53:13.210Z,20.61
2017-03-31T07:53:38.787Z,20.62
2017-03-31T07:54:04.440Z,20.56
2017-03-31T07:54:30.033Z,20.61
2017-03-31T07:54:55.581Z,20.61
2017-03-31T07:55:21.246Z,20.53
2017-03-31T07:55:46.853Z,20.65
2017-03-31T07:56:12.404Z,20.65
2017-03-31T07:56:38.043Z,20.59
2017-03-31T07:57:03.688Z,20.64
2017-03-31T07:57:29.273Z,20.62
2017-03-31T07:57:54.828Z,20.62
2017-03-31T07:58:20.381Z,20.65
2017-03-31T07:58:45.993Z,20.53
2017-03-31T07:59:11.590Z,20.65
2017-03-31T07:59:37.148Z,20.59
2017-03-31T08:00:02.808Z,20.51
2017-03-31T08:00:28.380Z,20.53
2017-03-31T08:00:53.927Z,20.58
2017-03-31T08:01:19.497Z,20.56
2017-03-31T08:01:45.168Z,20.59
2017-03-31T08:02:10.738Z,20.53
2017-03-31T08:02:36.318Z,20.58
2017-03-31T08:03:02.086Z,20.5
2017-03-31T08:03:27.667Z,20.62
2017-03-31T08:03:53.231Z,20.59
2017-03-31T08:04:18.869Z,20.64
2017-03-31T08:04:44.430Z,20.65
2017-03-31T08:05:09.986Z,20.61
2017-03-31T08:05:35.536Z,20.53
2017-03-31T08:06:01.108Z,20.62
2017-03-31T08:06:26.686Z,20.58
2017-03-31T08:06:52.258Z,20.62
2017-03-31T08:07:17.825Z,20.65
2017-03-31T08:07:43.392Z,20.62
2017-03-31T08:08:08.992Z,20.58
2017-03-31T08:08:34.542Z,20.61
2017-03-31T08:09:00.115Z,20.59
2017-03-31T08:09:25.833Z,20.58
2017-03-31T08:09:51.426Z,20.61
2017-03-31T08:10:16.958Z,20.65
2017-03-31T08:10:42.510Z,20.62
2017-03-31T08:11:08.103Z,20.62
2017-03-31T08:11:33.678Z,20.58
2017-03-31T08:11:59.243Z,20.64
2017-03-31T08:12:24.801Z,20.64
2017-03-31T08:12:50.358Z,20.62
2017-03-31T08:13:16.020Z,20.64
2017-03-31T08:13:41.580Z,20.62
2017-03-31T08:14:07.208Z,20.62
2017-03-31T08:14:32.763Z,20.59
2017-03-31T08:14:58.441Z,20.64
2017-03-31T08:15:23.992Z,20.62
2017-03-31T08:15:49.630Z,20.64
2017-03-31T08:16:15.185Z,20.62
2017-03-31T08:16:40.767Z,20.61
2017-03-31T08:17:06.361Z,20.64
2017-03-31T08:17:31.912Z,20.64
2017-03-31T08:17:57.478Z,20.66
2017-03-31T08:18:23.047Z,20.62
2017-03-31T08:18:48.609Z,20.64
2017-03-31T08:19:14.202Z,20.72
2017-03-31T08:19:39.764Z,20.62
2017-03-31T08:20:05.391Z,20.76
2017-03-31T08:20:30.972Z,20.62
2017-03-31T08:20:56.529Z,20.66
2017-03-31T08:21:22.089Z,20.65
2017-03-31T08:21:47.662Z,20.65
2017-03-31T08:22:13.255Z,20.72
2017-03-31T08:22:38.826Z,20.69
2017-03-31T08:23:04.382Z,20.68
2017-03-31T08:23:29.969Z,20.68
2017-03-31T08:23:55.549Z,20.68
2017-03-31T08:24:21.133Z,20.71
2017-03-31T08:24:46.696Z,20.69
2017-03-31T08:25:12.262Z,20.66
2017-03-31T08:25:37.841Z,20.72
2017-03-31T08:26:03.404Z,20.68
2017-03-31T08:26:28.971Z,20.66
2017-03-31T08:26:54.563Z,20.64
2017-03-31T08:27:20.122Z,20.69
2017-03-31T08:27:45.680Z,20.72
2017-03-31T08:28:11.254Z,20.66
2017-03-31T08:28:36.850Z,20.69
2017-03-31T08:29:02.420Z,20.68
2017-03-31T08:29:27.984Z,20.72
2017-03-31T08:29:53.548Z,20.66
2017-03-31T08:30:19.110Z,20.69
2017-03-31T08:30:44.686Z,20.66
2017-03-31T08:31:10.317Z,20.66
2017-03-31T08:31:35.891Z,20.68
2017-03-31T08:32:01.461Z,20.69
2017-03-31T08:32:27.112Z,20.68
2017-03-31T08:32:52.656Z,20.71
2017-03-31T08:33:18.196Z,20.69
2017-03-31T08:33:43.878Z,20.66
2017-03-31T08:34:09.438Z,20.68
2017-03-31T08:34:34.980Z,20.68